createdAt,value
2022-09-26T00:00:51.747Z,10.87
2022-09-26T00:03:18.284Z,10.92
2022-09-26T00:05:45.227Z,10.91
2022-09-26T00:08:12.124Z,10.94
2022-09-26T00:10:38.592Z,10.95
2022-09-26T00:13:05.637Z,11.08
2022-09-26T00:15:32.568Z,11.01
2022-09-26T00:17:59.472Z,10.98
2022-09-26T00:20:26.344Z,11.00
2022-09-26T00:22:52.810Z,11.00
2022-09-26T00:25:19.497Z,10.95
2022-09-26T00:27:46.431Z,11.00
2022-09-26T00:30:13.592Z,10.99
2022-09-26T00:32:40.125Z,11.02
2022-09-26T00:35:07.192Z,11.04
2022-09-26T00:37:34.086Z,11.07
2022-09-26T00:40:01.935Z,11.02
2022-09-26T00:42:28.439Z,11.04
2022-09-26T00:44:55.121Z,11.04
2022-09-26T00:47:58.126Z,11.19
2022-09-26T00:50:32.840Z,11.17
2022-09-26T00:53:05.798Z,11.17
2022-09-26T00:55:38.778Z,11.15
2022-09-26T00:58:27.859Z,11.22
2022-09-26T01:00:56.091Z,11.23
2022-09-26T01:03:24.600Z,11.18
2022-09-26T01:05:51.629Z,11.17
2022-09-26T01:08:25.392Z,11.17
2022-09-26T01:10:51.944Z,11.18
2022-09-26T01:13:18.553Z,11.21
2022-09-26T01:15:45.458Z,11.16
2022-09-26T01:18:12.168Z,11.18
2022-09-26T01:20:45.195Z,11.23
2022-09-26T01:23:37.894Z,11.15
2022-09-26T01:26:26.301Z,11.20
2022-09-26T01:29:14.975Z,11.22
2022-09-26T01:32:12.490Z,11.20
2022-09-26T01:34:46.824Z,11.22
2022-09-26T01:37:34.438Z,11.17
2022-09-26T01:40:23.863Z,11.24
2022-09-26T01:43:15.556Z,11.31
2022-09-26T01:45:53.998Z,11.24
2022-09-26T01:48:33.730Z,11.19
2022-09-26T01:51:20.034Z,11.14
2022-09-26T01:54:12.959Z,11.15
2022-09-26T01:56:42.032Z,11.14
2022-09-26T01:59:21.396Z,11.03
2022-09-26T02:01:51.311Z,10.99
2022-09-26T02:04:22.692Z,11.02
2022-09-26T02:06:58.173Z,10.99
2022-09-26T02:09:32.434Z,10.96
2022-09-26T02:12:03.217Z,11.01
2022-09-26T02:14:36.416Z,10.96
2022-09-26T02:17:13.169Z,10.89
2022-09-26T02:19:51.414Z,10.92
2022-09-26T02:22:18.859Z,10.82
2022-09-26T02:24:49.817Z,10.83
2022-09-26T02:27:16.820Z,10.79
2022-09-26T02:29:43.752Z,10.80
2022-09-26T02:32:16.100Z,10.78
2022-09-26T02:34:46.508Z,10.72
2022-09-26T02:37:15.420Z,10.71
2022-09-26T02:39:43.515Z,10.70
2022-09-26T02:42:29.644Z,10.74
2022-09-26T02:45:14.421Z,10.76
2022-09-26T02:47:40.842Z,10.74
2022-09-26T02:50:21.259Z,10.70
2022-09-26T02:52:53.859Z,10.74
2022-09-26T02:55:46.175Z,10.69
2022-09-26T02:58:36.126Z,10.69
2022-09-26T03:01:17.977Z,10.68
2022-09-26T03:03:52.790Z,10.66
2022-09-26T03:06:26.873Z,10.65
2022-09-26T03:08:56.931Z,10.63
2022-09-26T03:11:26.174Z,10.61
2022-09-26T03:13:56.353Z,10.65
2022-09-26T03:16:25.414Z,10.58
2022-09-26T03:18:58.306Z,10.62
2022-09-26T03:21:25.569Z,10.58
2022-09-26T03:23:52.109Z,10.55
2022-09-26T03:26:25.384Z,10.56
2022-09-26T03:28:52.958Z,10.59
2022-09-26T03:31:22.294Z,10.65
2022-09-26T03:33:49.756Z,10.67
2022-09-26T03:36:16.324Z,10.65
2022-09-26T03:38:43.574Z,10.66
2022-09-26T03:41:10.428Z,10.68
2022-09-26T03:43:37.950Z,10.65
2022-09-26T03:46:06.980Z,10.58
2022-09-26T03:48:34.197Z,10.56
2022-09-26T03:51:09.327Z,10.58
2022-09-26T03:53:38.402Z,10.61
2022-09-26T03:56:07.607Z,10.52
2022-09-26T03:58:35.206Z,10.53
2022-09-26T04:01:11.254Z,10.57
2022-09-26T04:03:40.050Z,10.55
2022-09-26T04:06:09.596Z,10.62
2022-09-26T04:08:42.133Z,10.58
2022-09-26T04:11:14.110Z,10.62
2022-09-26T04:13:51.199Z,10.61
2022-09-26T04:16:23.726Z,10.59
2022-09-26T04:18:56.731Z,10.55
2022-09-26T04:21:24.326Z,10.59
2022-09-26T04:23:53.347Z,10.58
2022-09-26T04:26:23.558Z,10.59
2022-09-26T04:28:54.494Z,10.61
2022-09-26T04:31:22.136Z,10.54
2022-09-26T04:33:50.195Z,10.56
2022-09-26T04:36:18.151Z,10.54
2022-09-26T04:38:44.717Z,10.44
2022-09-26T04:41:20.036Z,10.36
2022-09-26T04:43:47.598Z,10.37
2022-09-26T04:46:26.932Z,10.36
2022-09-26T04:48:58.449Z,10.32
2022-09-26T04:51:26.987Z,10.24
2022-09-26T04:53:53.472Z,10.19
2022-09-26T04:56:22.394Z,10.18
2022-09-26T04:58:49.449Z,10.12
2022-09-26T05:01:20.488Z,10.14
2022-09-26T05:03:47.661Z,10.18
2022-09-26T05:06:15.626Z,10.15
2022-09-26T05:08:46.008Z,10.19
2022-09-26T05:11:14.051Z,10.23
2022-09-26T05:13:40.582Z,10.22
2022-09-26T05:16:11.427Z,10.14
2022-09-26T05:18:39.306Z,10.08
2022-09-26T05:21:07.461Z,10.09
2022-09-26T05:23:53.653Z,10.05
2022-09-26T05:26:27.715Z,10.07
2022-09-26T05:29:08.522Z,10.05
2022-09-26T05:31:39.451Z,9.98
2022-09-26T05:34:14.350Z,10.04
2022-09-26T05:36:44.026Z,9.98
2022-09-26T05:39:30.496Z,10.01
2022-09-26T05:41:59.210Z,9.98
2022-09-26T05:44:26.622Z,10.00
2022-09-26T05:46:53.274Z,9.96
2022-09-26T05:49:19.789Z,9.90
2022-09-26T05:51:47.062Z,9.93
2022-09-26T05:54:14.040Z,9.88
2022-09-26T05:56:40.549Z,9.89
2022-09-26T05:59:07.123Z,9.86
2022-09-26T06:01:34.455Z,9.92
2022-09-26T06:04:02.866Z,9.97
2022-09-26T06:06:29.989Z,9.91
2022-09-26T06:08:56.615Z,9.90
2022-09-26T06:11:27.360Z,9.96
2022-09-26T06:13:55.658Z,9.95
2022-09-26T06:16:22.357Z,9.94
2022-09-26T06:18:51.009Z,9.97
2022-09-26T06:21:19.229Z,9.96
2022-09-26T06:23:46.513Z,10.13
2022-09-26T06:26:17.159Z,10.16
2022-09-26T06:28:43.666Z,10.13
2022-09-26T06:31:14.738Z,10.24
2022-09-26T06:33:41.424Z,10.29
2022-09-26T06:36:10.758Z,10.30
2022-09-26T06:38:38.254Z,10.38
2022-09-26T06:41:07.464Z,10.50
2022-09-26T06:43:35.239Z,10.57
2022-09-26T06:46:02.221Z,10.64
2022-09-26T06:48:28.807Z,10.63
2022-09-26T06:51:00.592Z,10.66
2022-09-26T06:53:28.351Z,10.80
2022-09-26T06:55:55.033Z,10.81
2022-09-26T06:58:21.834Z,10.76
2022-09-26T07:00:48.606Z,10.86
2022-09-26T07:03:16.029Z,10.89
2022-09-26T07:05:45.205Z,10.99
2022-09-26T07:08:11.746Z,11.24
2022-09-26T07:10:38.442Z,11.21
2022-09-26T07:13:06.690Z,11.10
2022-09-26T07:15:35.323Z,11.09
2022-09-26T07:18:03.621Z,11.04
2022-09-26T07:20:34.457Z,10.94
2022-09-26T07:23:05.291Z,10.88
2022-09-26T07:25:32.281Z,10.80
2022-09-26T07:27:59.678Z,10.80
2022-09-26T07:30:28.290Z,10.70
2022-09-26T07:33:03.718Z,10.64
2022-09-26T07:35:36.650Z,10.63
2022-09-26T07:38:05.113Z,10.65
2022-09-26T07:40:32.439Z,10.64
2022-09-26T07:43:18.698Z,10.70
2022-09-26T07:46:18.680Z,10.79
2022-09-26T07:49:03.720Z,10.86
2022-09-26T07:51:32.512Z,10.82
2022-09-26T07:53:59.167Z,10.81
2022-09-26T07:56:25.642Z,10.78
2022-09-26T07:58:53.500Z,10.87
2022-09-26T08:01:20.275Z,10.90
2022-09-26T08:03:48.180Z,10.95
2022-09-26T08:06:20.171Z,10.99
2022-09-26T08:08:48.198Z,11.05
2022-09-26T08:11:17.036Z,11.06
2022-09-26T08:13:45.596Z,11.10
2022-09-26T08:16:19.535Z,11.05
2022-09-26T08:18:46.923Z,11.10
2022-09-26T08:21:14.275Z,11.12
2022-09-26T08:23:41.655Z,11.12
2022-09-26T08:26:08.489Z,11.17
2022-09-26T08:28:36.174Z,11.16
2022-09-26T08:31:05.193Z,11.25
2022-09-26T08:33:35.217Z,11.50
2022-09-26T08:36:07.164Z,11.51
2022-09-26T08:38:35.499Z,11.50
2022-09-26T08:41:34.324Z,11.44
2022-09-26T08:47:55.705Z,11.26
2022-09-26T08:50:34.084Z,11.26
2022-09-26T08:53:03.996Z,11.25
2022-09-26T08:55:35.323Z,11.22
2022-09-26T08:58:15.307Z,11.19
2022-09-26T09:00:41.897Z,11.19
2022-09-26T09:03:36.153Z,11.16
2022-09-26T09:06:11.340Z,11.11
2022-09-26T09:08:44.988Z,11.30
2022-09-26T09:11:39.458Z,11.22
2022-09-26T09:14:43.434Z,11.20
2022-09-26T09:17:24.868Z,11.22
2022-09-26T09:20:20.544Z,11.20
2022-09-26T09:23:22.629Z,11.21
2022-09-26T09:29:22.150Z,11.82
2022-09-26T09:31:49.670Z,11.99
2022-09-26T09:34:33.292Z,12.12
2022-09-26T09:37:05.644Z,12.04
2022-09-26T09:39:38.185Z,11.83
2022-09-26T09:42:36.336Z,11.69
2022-09-26T09:45:06.976Z,11.62
2022-09-26T09:47:39.052Z,11.50
2022-09-26T09:50:14.589Z,11.55
2022-09-26T09:53:12.540Z,11.54
2022-09-26T09:55:48.900Z,11.51
2022-09-26T09:58:27.895Z,11.39
2022-09-26T10:01:15.528Z,11.42
2022-09-26T10:03:49.081Z,11.41
2022-09-26T10:06:45.294Z,11.39
2022-09-26T10:09:39.376Z,11.46
2022-09-26T10:12:15.119Z,11.46
2022-09-26T10:15:05.127Z,11.37
2022-09-26T10:17:32.025Z,11.41
2022-09-26T10:19:59.039Z,11.34
2022-09-26T10:22:37.519Z,11.42
2022-09-26T10:25:25.832Z,11.40
2022-09-26T10:27:55.373Z,11.40
2022-09-26T10:30:26.901Z,11.36
2022-09-26T10:32:59.937Z,11.35
2022-09-26T10:35:45.811Z,11.49
2022-09-26T10:38:23.249Z,11.48
2022-09-26T10:40:54.863Z,11.61
2022-09-26T10:43:33.056Z,11.65
2022-09-26T10:46:09.217Z,11.63
2022-09-26T10:48:47.052Z,11.58
2022-09-26T10:51:23.377Z,11.60
2022-09-26T10:53:54.553Z,11.53
2022-09-26T10:56:26.633Z,11.56
2022-09-26T10:58:58.837Z,11.59
2022-09-26T11:01:29.554Z,11.57
2022-09-26T11:04:01.478Z,11.60
2022-09-26T11:06:39.544Z,11.59
2022-09-26T11:09:07.379Z,11.56
2022-09-26T11:11:38.209Z,11.59
2022-09-26T11:14:08.692Z,11.70
2022-09-26T11:16:44.379Z,11.71
2022-09-26T11:19:21.956Z,11.70
2022-09-26T11:21:58.795Z,11.66
2022-09-26T11:24:45.940Z,11.69
2022-09-26T11:27:25.163Z,11.69
2022-09-26T11:30:09.318Z,11.67
2022-09-26T11:32:42.184Z,11.66
2022-09-26T11:35:34.771Z,11.69
2022-09-26T11:38:22.128Z,11.72
2022-09-26T11:41:07.377Z,11.66
2022-09-26T11:44:09.598Z,11.63
2022-09-26T11:46:48.198Z,11.66
2022-09-26T11:49:38.918Z,11.67
2022-09-26T11:52:05.358Z,11.62
2022-09-26T11:54:40.780Z,11.58
2022-09-26T11:57:29.058Z,11.59
2022-09-26T12:00:27.782Z,11.61
2022-09-26T12:03:17.171Z,11.71
2022-09-26T12:06:07.334Z,11.83
2022-09-26T12:08:54.141Z,11.99
2022-09-26T12:11:33.936Z,12.24
2022-09-26T12:14:09.343Z,12.42
2022-09-26T12:16:46.545Z,12.70
2022-09-26T12:19:40.957Z,12.80
2022-09-26T12:22:31.706Z,12.90
2022-09-26T12:25:20.198Z,13.08
2022-09-26T12:27:50.167Z,13.18
2022-09-26T12:30:21.946Z,13.17
2022-09-26T12:33:13.891Z,13.18
2022-09-26T12:35:49.924Z,13.27
2022-09-26T12:38:22.077Z,13.20
2022-09-26T12:41:13.710Z,13.25
2022-09-26T12:43:59.048Z,13.11
2022-09-26T12:46:31.802Z,12.98
2022-09-26T12:49:13.083Z,12.94
2022-09-26T12:51:52.142Z,12.86
2022-09-26T12:54:27.669Z,12.91
2022-09-26T12:57:04.330Z,12.89
2022-09-26T12:59:52.580Z,12.84
2022-09-26T13:02:54.723Z,12.63
2022-09-26T13:05:24.561Z,12.64
2022-09-26T13:08:09.550Z,12.63
2022-09-26T13:11:14.621Z,12.65
2022-09-26T13:14:14.956Z,12.70
2022-09-26T13:17:09.477Z,12.76
2022-09-26T13:19:41.934Z,12.79
2022-09-26T13:22:42.446Z,12.71
2022-09-26T13:25:18.960Z,12.80
2022-09-26T13:27:58.633Z,12.85
2022-09-26T13:30:33.342Z,12.93
2022-09-26T13:33:25.745Z,12.91
2022-09-26T13:35:55.959Z,12.87
2022-09-26T13:39:19.607Z,12.78
2022-09-26T13:42:15.595Z,12.85
2022-09-26T13:45:02.864Z,12.82
2022-09-26T13:47:49.168Z,12.71
2022-09-26T13:50:27.986Z,12.67
2022-09-26T13:53:26.908Z,12.68
2022-09-26T13:56:34.945Z,12.73
2022-09-26T13:59:18.055Z,12.77
2022-09-26T14:02:24.152Z,12.95
2022-09-26T14:05:11.251Z,13.18
2022-09-26T14:07:55.993Z,13.61
2022-09-26T14:10:52.521Z,13.77
2022-09-26T14:13:33.391Z,14.11
2022-09-26T14:16:24.614Z,13.97
2022-09-26T14:19:04.137Z,13.90
2022-09-26T14:21:33.958Z,13.70
2022-09-26T14:24:19.424Z,13.59
2022-09-26T14:26:56.987Z,13.45
2022-09-26T14:29:25.384Z,13.42
2022-09-26T14:32:15.531Z,13.38
2022-09-26T14:34:48.960Z,13.43
2022-09-26T14:37:24.345Z,13.55
2022-09-26T14:40:11.175Z,13.56
2022-09-26T14:42:43.804Z,13.57
2022-09-26T14:45:16.602Z,13.60
2022-09-26T14:47:50.282Z,13.52
2022-09-26T14:50:25.084Z,13.48
2022-09-26T14:52:55.228Z,13.44
2022-09-26T14:55:22.316Z,13.36
2022-09-26T14:57:48.867Z,13.26
2022-09-26T15:00:39.346Z,13.26
2022-09-26T15:03:16.478Z,13.23
2022-09-26T15:05:44.677Z,13.21
2022-09-26T15:08:38.960Z,13.20
2022-09-26T15:11:06.865Z,13.14
2022-09-26T15:13:38.467Z,13.06
2022-09-26T15:16:19.276Z,13.07
2022-09-26T15:18:55.459Z,13.01
2022-09-26T15:21:40.223Z,12.99
2022-09-26T15:24:25.008Z,13.04
2022-09-26T15:26:51.931Z,13.05
2022-09-26T15:29:19.227Z,13.01
2022-09-26T15:31:46.544Z,12.98
2022-09-26T15:34:16.458Z,12.96
2022-09-26T15:36:48.324Z,13.00
2022-09-26T15:39:35.911Z,13.14
2022-09-26T15:42:36.457Z,13.26
2022-09-26T15:45:15.592Z,13.27
2022-09-26T15:47:42.337Z,13.15
2022-09-26T15:50:21.190Z,13.13
2022-09-26T15:53:01.165Z,13.02
2022-09-26T15:55:49.343Z,12.98
2022-09-26T15:58:21.283Z,12.85
2022-09-26T16:00:51.565Z,12.56
2022-09-26T16:03:27.301Z,12.13
2022-09-26T16:05:55.090Z,11.81
2022-09-26T16:08:28.294Z,11.84
2022-09-26T16:11:00.575Z,11.86
2022-09-26T16:13:36.976Z,11.92
2022-09-26T16:16:07.579Z,11.94
2022-09-26T16:18:40.197Z,11.89
2022-09-26T16:21:23.267Z,11.88
2022-09-26T16:23:59.021Z,11.86
2022-09-26T16:26:28.319Z,11.86
2022-09-26T16:28:55.143Z,11.79
2022-09-26T16:31:30.016Z,11.88
2022-09-26T16:33:59.209Z,11.86
2022-09-26T16:36:33.088Z,11.82
2022-09-26T16:39:02.551Z,11.82
2022-09-26T16:42:01.081Z,11.81
2022-09-26T16:44:36.591Z,11.74
2022-09-26T16:47:07.269Z,11.72
2022-09-26T16:49:48.361Z,11.69
2022-09-26T16:52:27.569Z,11.66
2022-09-26T16:54:55.994Z,11.56
2022-09-26T16:57:40.676Z,11.44
2022-09-26T17:00:38.666Z,11.40
2022-09-26T17:03:18.769Z,11.38
2022-09-26T17:05:45.841Z,11.30
2022-09-26T17:08:12.686Z,11.22
2022-09-26T17:10:39.599Z,11.17
2022-09-26T17:13:06.455Z,11.09
2022-09-26T17:15:34.682Z,11.05
2022-09-26T17:18:06.389Z,10.95
2022-09-26T17:20:32.936Z,10.96
2022-09-26T17:23:11.894Z,10.91
2022-09-26T17:25:54.173Z,10.84
2022-09-26T17:28:32.000Z,10.85
2022-09-26T17:30:59.914Z,10.85
2022-09-26T17:33:29.608Z,10.79
2022-09-26T17:35:56.209Z,10.77
2022-09-26T17:38:22.716Z,10.82
2022-09-26T17:40:50.090Z,10.77
2022-09-26T17:43:16.690Z,10.75
2022-09-26T17:45:49.258Z,10.81
2022-09-26T17:48:28.251Z,10.81
2022-09-26T17:50:56.015Z,10.82
2022-09-26T17:53:25.458Z,10.83
2022-09-26T17:55:53.153Z,10.81
2022-09-26T17:58:20.484Z,10.79
2022-09-26T18:00:50.191Z,10.75
2022-09-26T18:03:28.088Z,10.81
2022-09-26T18:05:55.790Z,10.80
2022-09-26T18:08:32.664Z,10.80
2022-09-26T18:11:02.782Z,10.83
2022-09-26T18:13:35.642Z,10.83
2022-09-26T18:16:03.242Z,10.80
2022-09-26T18:18:31.776Z,10.85
2022-09-26T18:21:03.961Z,10.81
2022-09-26T18:23:43.798Z,10.76
2022-09-26T18:26:27.808Z,10.66
2022-09-26T18:28:56.885Z,10.62
2022-09-26T18:31:29.799Z,10.56
2022-09-26T18:33:58.005Z,10.49
2022-09-26T18:36:26.170Z,10.49
2022-09-26T18:38:52.729Z,10.43
2022-09-26T18:41:20.925Z,10.36
2022-09-26T18:43:52.086Z,10.44
2022-09-26T18:46:19.342Z,10.35
2022-09-26T18:48:47.272Z,10.34
2022-09-26T18:51:14.092Z,10.37
2022-09-26T18:53:41.079Z,10.35
2022-09-26T18:56:27.723Z,10.36
2022-09-26T18:58:54.704Z,10.34
2022-09-26T19:01:31.006Z,10.42
2022-09-26T19:04:01.473Z,10.38
2022-09-26T19:06:36.651Z,10.43
2022-09-26T19:09:06.448Z,10.42
2022-09-26T19:11:35.057Z,10.51
2022-09-26T19:14:20.013Z,10.53
2022-09-26T19:16:48.728Z,10.48
2022-09-26T19:19:16.673Z,10.47
2022-09-26T19:21:59.465Z,10.38
2022-09-26T19:24:52.715Z,10.33
2022-09-26T19:27:45.137Z,10.27
2022-09-26T19:30:17.052Z,10.25
2022-09-26T19:32:49.284Z,10.15
2022-09-26T19:35:31.203Z,10.15
2022-09-26T19:37:59.999Z,10.06
2022-09-26T19:40:27.694Z,10.07
2022-09-26T19:42:57.165Z,10.07
2022-09-26T19:45:24.747Z,10.02
2022-09-26T19:47:54.513Z,10.01
2022-09-26T19:50:23.706Z,10.12
2022-09-26T19:53:01.098Z,10.09
2022-09-26T19:55:30.948Z,10.07
2022-09-26T19:58:14.165Z,10.01
2022-09-26T20:00:43.537Z,10.11
2022-09-26T20:03:21.949Z,10.04
2022-09-26T20:05:49.655Z,10.02
2022-09-26T20:08:19.719Z,9.95
2022-09-26T20:10:46.491Z,10.01
2022-09-26T20:13:14.088Z,9.97
2022-09-26T20:15:40.741Z,9.95
2022-09-26T20:18:11.775Z,9.87
2022-09-26T20:20:38.851Z,9.86
2022-09-26T20:23:13.019Z,9.87
2022-09-26T20:25:39.544Z,9.85
2022-09-26T20:28:05.993Z,9.81
2022-09-26T20:30:51.167Z,9.80
2022-09-26T20:33:20.975Z,9.76
2022-09-26T20:36:01.684Z,9.73
2022-09-26T20:38:37.254Z,9.80
2022-09-26T20:41:23.195Z,9.81
2022-09-26T20:43:53.068Z,9.73
2022-09-26T20:46:22.133Z,9.72
2022-09-26T20:48:49.561Z,9.71
2022-09-26T20:51:27.294Z,9.79
2022-09-26T20:53:53.919Z,9.75
2022-09-26T20:56:23.119Z,9.75
2022-09-26T20:58:50.441Z,9.75
2022-09-26T21:01:19.083Z,9.77
2022-09-26T21:03:57.262Z,9.79
2022-09-26T21:06:33.048Z,9.73
2022-09-26T21:08:59.776Z,9.74
2022-09-26T21:11:26.888Z,9.73
2022-09-26T21:13:53.394Z,9.79
2022-09-26T21:16:21.877Z,9.80
2022-09-26T21:18:51.349Z,9.75
2022-09-26T21:21:25.785Z,9.79
2022-09-26T21:23:53.901Z,9.77
2022-09-26T21:26:23.607Z,9.76
2022-09-26T21:28:51.692Z,9.73
2022-09-26T21:31:20.843Z,9.81
2022-09-26T21:33:47.868Z,9.83
2022-09-26T21:36:14.663Z,9.84
2022-09-26T21:38:41.288Z,9.82
2022-09-26T21:41:09.631Z,9.80
2022-09-26T21:43:42.106Z,9.76
2022-09-26T21:46:08.859Z,9.80
2022-09-26T21:48:36.089Z,9.74
2022-09-26T21:51:04.197Z,9.71
2022-09-26T21:53:37.085Z,9.73
2022-09-26T21:56:10.642Z,9.73
2022-09-26T21:58:40.402Z,9.77
2022-09-26T22:01:06.969Z,9.76
2022-09-26T22:03:33.817Z,9.69
2022-09-26T22:06:03.672Z,9.70
2022-09-26T22:08:33.904Z,9.74
2022-09-26T22:11:00.945Z,9.73
2022-09-26T22:13:27.507Z,9.73
2022-09-26T22:15:54.066Z,9.71
2022-09-26T22:18:20.596Z,9.74
2022-09-26T22:20:54.275Z,9.76
2022-09-26T22:23:20.751Z,9.74
2022-09-26T22:25:51.282Z,9.72
2022-09-26T22:28:18.323Z,9.67
2022-09-26T22:30:44.933Z,9.70
2022-09-26T22:33:11.706Z,9.72
2022-09-26T22:35:38.197Z,9.71
2022-09-26T22:38:04.732Z,9.65
2022-09-26T22:40:31.322Z,9.67
2022-09-26T22:42:57.867Z,9.66
2022-09-26T22:45:24.477Z,9.66
2022-09-26T22:47:50.932Z,9.62
2022-09-26T22:50:18.191Z,9.63
2022-09-26T22:52:44.892Z,9.59
2022-09-26T22:55:11.470Z,9.62
2022-09-26T22:57:39.037Z,9.56
2022-09-26T23:00:06.286Z,9.52
2022-09-26T23:02:32.953Z,9.55
2022-09-26T23:04:59.470Z,9.52
2022-09-26T23:07:26.129Z,9.52
2022-09-26T23:09:53.185Z,9.53
2022-09-26T23:12:19.708Z,9.51
2022-09-26T23:14:46.242Z,9.47
2022-09-26T23:17:12.807Z,9.49
2022-09-26T23:19:40.117Z,9.43
2022-09-26T23:22:06.696Z,9.39
2022-09-26T23:24:33.644Z,9.41
2022-09-26T23:27:00.926Z,9.43
2022-09-26T23:29:27.672Z,9.33
2022-09-26T23:31:54.868Z,9.31
2022-09-26T23:34:21.426Z,9.26
2022-09-26T23:36:48.138Z,9.24
2022-09-26T23:39:15.391Z,9.32
2022-09-26T23:41:41.997Z,9.34
2022-09-26T23:44:09.111Z,9.32
2022-09-26T23:46:36.534Z,9.33
2022-09-26T23:49:03.167Z,9.41
2022-09-26T23:51:29.787Z,9.38
2022-09-26T23:53:56.742Z,9.44
2022-09-26T23:56:23.617Z,9.52
2022-09-26T23:58:50.198Z,9.50
